Aviation Digital Data Service (ADDS)

Output produced by METARs form (1217 UTC 03 July 2015)
found at http://aviationweather.gov/adds/metars/
 
KPQI 031127Z 0312/0412 25012G22KT P6SM BKN050 
     FM031800 28012G22KT P6SM SCT050 
     FM040000 25008KT P6SM SCT250 AMD LTD TO CLD VIS AND WIND